Time;durP1;ratioP1;P1;durP2;ratioP2;P2;SDS_P1;SDS_P2;PMS_P1;PMS_P2;Temp;Humidity;BMP_temperature;BMP_pressure;BME280_temperature;BME280_humidity;BME280_pressure;Samples;Min_cycle;Max_cycle;Signal;HPM_P1;HPM_P2
2022/10/13 00:00:24;;;;;;;;;16.00;13.50;;;;;16.07;84.35;99778.44;5055445;28;45400;-70
2022/10/13 00:02:49;;;;;;;;;21.25;18.50;;;;;16.06;84.61;99785.53;5057420;28;45606;-70
2022/10/13 00:05:15;;;;;;;;;23.75;20.25;;;;;16.04;84.42;99788.28;5050757;28;45484;-70
2022/10/13 00:07:40;;;;;;;;;23.50;18.00;;;;;16.04;84.44;99792.75;5057050;28;45358;-70
2022/10/13 00:10:06;;;;;;;;;25.75;21.50;;;;;16.04;84.45;99793.59;5051193;28;45519;-70
2022/10/13 00:12:36;;;;;;;;;25.75;20.25;;;;;16.03;84.16;99786.56;5057186;28;45361;-70
2022/10/13 00:15:03;;;;;;;;;20.50;18.00;;;;;16.02;84.94;99776.84;5052331;28;45440;-71
2022/10/13 00:17:29;;;;;;;;;23.00;21.00;;;;;15.99;84.73;99774.34;5057264;28;45257;-70
2022/10/13 00:19:54;;;;;;;;;20.00;18.50;;;;;16.00;84.84;99776.06;5055182;28;45409;-70
2022/10/13 00:22:20;;;;;;;;;18.75;17.25;;;;;15.98;84.98;99785.06;5056710;28;46674;-70
2022/10/13 00:24:52;;;;;;;;;20.00;19.00;;;;;15.98;85.09;99782.41;5047250;28;45361;-70
2022/10/13 00:27:19;;;;;;;;;18.00;16.25;;;;;15.96;85.03;99782.47;5057165;28;45426;-70
2022/10/13 00:29:44;;;;;;;;;20.25;17.25;;;;;15.98;85.75;99782.41;5048289;28;45734;-72
2022/10/13 00:32:10;;;;;;;;;25.75;22.75;;;;;15.96;85.53;99792.25;5055229;28;48005;-70
2022/10/13 00:34:36;;;;;;;;;22.75;20.25;;;;;15.97;85.39;99796.63;5047623;28;45353;-70
2022/10/13 00:37:02;;;;;;;;;23.00;22.50;;;;;15.96;85.51;99794.91;5056892;28;45360;-70
2022/10/13 00:39:27;;;;;;;;;31.25;26.00;;;;;15.97;85.62;99792.19;5050960;28;45436;-70
2022/10/13 00:41:53;;;;;;;;;24.00;21.50;;;;;15.97;85.34;99788.66;5056697;28;46402;-70
2022/10/13 00:44:56;;;;;;;;;18.00;16.00;;;;;15.98;84.71;99801.03;5056083;28;45462;-70
2022/10/13 00:47:21;;;;;;;;;23.00;20.50;;;;;15.98;84.50;99806.34;5067155;28;45487;-70
2022/10/13 00:49:48;;;;;;;;;21.50;20.00;;;;;15.97;83.98;99804.63;5052770;28;45302;-70
2022/10/13 00:52:16;;;;;;;;;23.75;17.50;;;;;15.98;83.77;99812.53;5056463;28;45427;-70
2022/10/13 00:54:42;;;;;;;;;22.75;19.25;;;;;15.98;84.32;99811.66;5054489;28;45527;-70
2022/10/13 00:57:09;;;;;;;;;19.00;17.00;;;;;15.98;84.39;99806.34;5056445;28;45465;-70
2022/10/13 00:59:36;;;;;;;;;18.75;16.25;;;;;15.97;83.98;99800.16;5055297;28;45538;-71
2022/10/13 01:02:02;;;;;;;;;20.00;17.50;;;;;15.98;84.68;99801.88;5054996;28;48633;-70
2022/10/13 01:04:33;;;;;;;;;21.50;18.25;;;;;15.99;84.59;99808.94;5054886;28;45488;-70
2022/10/13 01:07:00;;;;;;;;;19.00;18.00;;;;;16.00;85.04;99804.47;5056128;28;45440;-70
2022/10/13 01:09:25;;;;;;;;;22.00;20.50;;;;;16.00;84.93;99800.00;5052023;28;45262;-70
2022/10/13 01:12:12;;;;;;;;;21.00;21.00;;;;;16.01;85.18;99801.72;5056024;28;46134;-70
2022/10/13 01:14:50;;;;;;;;;21.00;20.75;;;;;15.99;85.05;99800.94;5051462;28;45439;-70
2022/10/13 01:17:27;;;;;;;;;22.50;22.00;;;;;16.00;85.35;99805.34;5056532;28;45445;-70
2022/10/13 01:20:27;;;;;;;;;23.75;21.00;;;;;16.03;85.07;99799.84;5050801;28;45381;-70
2022/10/13 01:22:55;;;;;;;;;23.25;22.50;;;;;16.04;85.09;99801.59;5051700;28;46603;-70
2022/10/13 01:25:47;;;;;;;;;24.00;22.00;;;;;16.06;85.13;99793.53;5052820;28;45534;-70
2022/10/13 01:28:37;;;;;;;;;19.75;18.50;;;;;16.09;85.42;99797.84;5044818;28;45373;-70
2022/10/13 01:31:25;;;;;;;;;23.50;19.25;;;;;16.09;85.01;99788.03;5068989;28;45808;-70
2022/10/13 01:34:11;;;;;;;;;25.75;22.25;;;;;16.11;85.14;99790.59;5050821;28;45616;-70
2022/10/13 01:36:48;;;;;;;;;23.50;22.00;;;;;16.12;84.84;99793.19;5048672;28;45412;-70
2022/10/13 01:39:31;;;;;;;;;21.75;19.50;;;;;16.14;84.86;99793.97;5053456;28;45493;-70
2022/10/13 01:42:12;;;;;;;;;30.00;25.25;;;;;16.15;84.98;99786.84;5071585;27;45606;-70
2022/10/13 01:44:43;;;;;;;;;23.00;20.25;;;;;16.16;84.97;99785.91;5053544;28;46277;-70
2022/10/13 01:47:11;;;;;;;;;22.25;21.50;;;;;16.16;84.88;99785.91;5052815;28;45432;-70
2022/10/13 01:49:37;;;;;;;;;22.25;20.00;;;;;16.16;84.82;99781.44;5054491;28;45500;-70
2022/10/13 01:52:12;;;;;;;;;21.00;18.75;;;;;16.16;84.57;99781.44;5055173;28;45396;-70
2022/10/13 01:54:37;;;;;;;;;16.75;16.00;;;;;16.18;84.49;99776.06;5048034;28;46444;-70
2022/10/13 01:57:03;;;;;;;;;25.50;23.50;;;;;16.19;84.52;99773.31;5053585;28;45594;-70
2022/10/13 01:59:32;;;;;;;;;20.50;20.50;;;;;16.21;84.58;99771.44;5047824;28;45646;-70
2022/10/13 02:02:39;;;;;;;;;10.50;10.50;;;;;16.23;84.76;99774.03;5052446;28;45471;-70
2022/10/13 02:05:34;;;;;;;;;23.00;20.50;;;;;16.25;84.39;99773.00;5066955;28;45550;-70
2022/10/13 02:08:23;;;;;;;;;17.75;16.50;;;;;16.25;84.23;99765.03;5051651;28;45676;-70
2022/10/13 02:11:17;;;;;;;;;16.25;15.00;;;;;16.27;84.25;99771.09;5048284;28;45495;-70
2022/10/13 02:13:57;;;;;;;;;17.75;17.25;;;;;16.26;83.66;99765.84;5049295;28;45492;-70
2022/10/13 02:16:25;;;;;;;;;22.75;19.25;;;;;16.26;82.96;99768.50;5051462;28;46767;-70
2022/10/13 02:18:52;;;;;;;;;17.75;17.75;;;;;16.25;83.42;99764.16;5048758;28;45597;-70
2022/10/13 02:21:17;;;;;;;;;20.75;18.25;;;;;16.26;83.50;99769.38;5055009;28;45449;-70
2022/10/13 02:23:44;;;;;;;;;19.75;18.00;;;;;16.25;82.62;99770.34;5051377;28;45525;-70
2022/10/13 02:26:10;;;;;;;;;21.00;18.75;;;;;16.24;82.20;99768.63;5054752;28;45550;-70
2022/10/13 02:28:36;;;;;;;;;18.75;16.50;;;;;16.22;82.06;99766.97;5051590;28;45332;-70
2022/10/13 02:31:02;;;;;;;;;17.50;14.00;;;;;16.18;81.68;99760.94;5055100;28;45508;-70
2022/10/13 02:33:27;;;;;;;;;13.75;13.75;;;;;16.15;81.78;99757.59;5052777;28;45511;-70
2022/10/13 02:35:53;;;;;;;;;16.25;15.50;;;;;16.11;81.32;99761.34;5041179;28;46444;-71
2022/10/13 02:38:19;;;;;;;;;17.00;14.75;;;;;16.07;81.58;99758.00;5051557;28;45407;-70
2022/10/13 02:40:44;;;;;;;;;15.25;13.00;;;;;16.03;82.01;99753.78;5053245;28;45437;-70
2022/10/13 02:43:10;;;;;;;;;18.00;15.75;;;;;16.00;81.68;99751.28;5053216;28;45504;-70
2022/10/13 02:45:35;;;;;;;;;16.75;15.00;;;;;15.97;81.67;99759.41;5083448;27;48140;-70
2022/10/13 02:48:00;;;;;;;;;18.25;17.00;;;;;15.92;81.96;99761.47;5070463;28;45280;-71
2022/10/13 02:50:26;;;;;;;;;10.50;9.25;;;;;15.89;81.53;99759.81;5051136;28;45411;-71
2022/10/13 02:52:51;;;;;;;;;19.00;17.25;;;;;15.85;82.22;99760.06;5054298;28;45491;-70
2022/10/13 02:55:17;;;;;;;;;14.75;14.25;;;;;15.82;82.16;99766.38;5049570;28;46526;-70
2022/10/13 02:57:42;;;;;;;;;21.25;20.25;;;;;15.80;82.47;99757.63;5054546;28;45411;-70
2022/10/13 03:00:08;;;;;;;;;16.50;16.50;;;;;15.79;82.86;99768.34;5050984;28;45577;-70
2022/10/13 03:02:33;;;;;;;;;17.50;17.00;;;;;15.75;83.09;99759.69;5054988;28;45507;-70
2022/10/13 03:04:59;;;;;;;;;19.75;17.50;;;;;15.74;83.94;99767.72;5051852;28;45567;-70
2022/10/13 03:07:24;;;;;;;;;20.50;19.00;;;;;15.72;83.76;99756.31;5038376;28;45492;-70
2022/10/13 03:09:50;;;;;;;;;19.25;17.75;;;;;15.70;83.84;99754.59;5049510;28;45475;-70
2022/10/13 03:12:15;;;;;;;;;18.25;16.00;;;;;15.69;83.58;99760.84;5053147;28;45423;-70
2022/10/13 03:14:40;;;;;;;;;16.50;15.50;;;;;15.69;83.53;99757.31;5051561;28;46344;-70
2022/10/13 03:17:06;;;;;;;;;17.25;16.50;;;;;15.67;83.46;99760.06;5054170;28;45480;-70
2022/10/13 03:19:31;;;;;;;;;15.00;14.75;;;;;15.68;83.08;99760.91;5047138;28;45761;-71
2022/10/13 03:21:57;;;;;;;;;17.00;17.00;;;;;15.68;83.05;99761.78;5054232;28;45339;-70
2022/10/13 03:24:22;;;;;;;;;20.75;18.00;;;;;15.68;83.35;99763.56;5052586;28;46223;-70
2022/10/13 03:26:47;;;;;;;;;5.50;3.75;;;;;15.69;83.37;99757.31;5054092;28;45492;-70
2022/10/13 03:29:15;;;;;;;;;20.00;15.75;;;;;15.70;82.87;99751.06;5054063;28;45535;-70
2022/10/13 03:31:41;;;;;;;;;19.25;17.75;;;;;15.70;83.04;99745.75;5054276;28;45456;-70
2022/10/13 03:34:07;;;;;;;;;20.50;17.00;;;;;15.72;82.68;99753.66;5048083;28;45519;-70
2022/10/13 03:36:33;;;;;;;;;17.50;15.50;;;;;15.72;82.83;99745.66;5053621;28;45446;-70
2022/10/13 03:38:58;;;;;;;;;19.00;17.50;;;;;15.72;82.52;99743.88;5051797;28;45436;-70
2022/10/13 03:41:24;;;;;;;;;15.00;14.25;;;;;15.69;82.18;99744.88;5054259;28;45426;-70
2022/10/13 03:43:49;;;;;;;;;17.00;15.00;;;;;15.70;82.18;99754.59;5036996;28;45518;-70
2022/10/13 03:46:16;;;;;;;;;15.25;14.50;;;;;15.69;81.67;99760.84;5054021;28;45417;-70
2022/10/13 03:48:42;;;;;;;;;17.75;14.50;;;;;15.69;81.94;99757.31;5048787;28;45424;-70
2022/10/13 03:51:10;;;;;;;;;14.75;14.50;;;;;15.68;81.74;99767.09;5053606;28;45359;-70
2022/10/13 03:53:36;;;;;;;;;17.00;15.25;;;;;15.68;81.36;99759.13;5049244;28;46249;-70
2022/10/13 03:56:03;;;;;;;;;15.25;13.50;;;;;15.67;80.79;99761.84;5053845;28;45455;-70
2022/10/13 03:58:29;;;;;;;;;16.00;16.00;;;;;15.65;80.87;99759.25;5051108;28;45447;-70
2022/10/13 04:00:55;;;;;;;;;15.75;14.75;;;;;15.64;80.84;99762.84;5053539;28;45488;-70
2022/10/13 04:03:20;;;;;;;;;14.00;13.75;;;;;15.61;80.52;99764.81;5085040;27;48290;-70
2022/10/13 04:05:46;;;;;;;;;17.50;14.75;;;;;15.60;80.57;99763.94;5053966;28;45183;-70
2022/10/13 04:08:13;;;;;;;;;17.00;13.75;;;;;15.60;80.90;99776.38;5052626;28;45630;-70
2022/10/13 04:10:39;;;;;;;;;16.75;13.75;;;;;15.57;80.98;99772.09;5046565;28;45538;-70
2022/10/13 04:13:05;;;;;;;;;16.50;15.00;;;;;15.55;81.05;99773.06;5047558;28;46327;-70
2022/10/13 04:15:35;;;;;;;;;10.75;8.25;;;;;15.52;81.52;99775.88;5046329;28;45436;-70
2022/10/13 04:18:00;;;;;;;;;15.25;14.75;;;;;15.50;81.13;99775.94;5052839;28;45492;-70
2022/10/13 04:20:26;;;;;;;;;16.75;16.25;;;;;15.47;81.24;99781.41;5044342;28;45396;-70
2022/10/13 04:22:51;;;;;;;;;16.75;15.75;;;;;15.44;81.34;99778.91;5053960;28;46094;-70
2022/10/13 04:25:17;;;;;;;;;15.50;15.00;;;;;15.42;81.67;99783.44;5044123;28;45474;-70
2022/10/13 04:27:42;;;;;;;;;20.00;18.50;;;;;15.42;81.79;99782.56;5052620;28;45454;-70
2022/10/13 04:30:08;;;;;;;;;15.00;13.75;;;;;15.38;82.03;99787.19;5055644;28;45485;-70
2022/10/13 04:32:33;;;;;;;;;19.50;18.00;;;;;15.38;82.42;99781.88;5056253;28;46809;-70
2022/10/13 04:34:59;;;;;;;;;18.75;16.75;;;;;15.36;82.44;99781.09;5052051;28;45322;-70
2022/10/13 04:37:25;;;;;;;;;15.50;14.50;;;;;15.33;82.37;99770.59;5056384;28;45354;-70
2022/10/13 04:39:50;;;;;;;;;14.75;14.75;;;;;15.28;82.05;99772.63;5052058;28;45569;-70
2022/10/13 04:42:15;;;;;;;;;18.50;14.25;;;;;15.28;82.26;99773.47;5053385;28;45550;-70
2022/10/13 04:44:41;;;;;;;;;21.50;19.00;;;;;15.27;82.36;99774.41;5051087;28;45480;-70
2022/10/13 04:47:07;;;;;;;;;14.50;14.50;;;;;15.26;82.09;99774.47;5056511;28;45613;-70
2022/10/13 04:49:32;;;;;;;;;17.50;16.25;;;;;15.23;82.15;99772.00;5054222;28;45838;-70
2022/10/13 04:51:58;;;;;;;;;16.50;16.00;;;;;15.21;81.88;99772.06;5055615;28;46206;-70
2022/10/13 04:54:23;;;;;;;;;19.50;16.75;;;;;15.20;82.01;99775.66;5051366;28;45305;-70
2022/10/13 04:56:48;;;;;;;;;15.00;15.00;;;;;15.19;81.75;99762.47;5055448;28;45426;-70
2022/10/13 04:59:14;;;;;;;;;14.25;14.00;;;;;15.16;82.17;99765.25;5055064;28;45410;-70
2022/10/13 05:01:40;;;;;;;;;16.75;15.25;;;;;15.14;82.13;99772.44;5055409;28;45450;-70
2022/10/13 05:04:05;;;;;;;;;19.75;18.00;;;;;15.13;81.91;99776.03;5054310;28;45340;-70
2022/10/13 05:06:34;;;;;;;;;15.75;15.75;;;;;15.12;82.38;99769.84;5055384;28;45500;-70
2022/10/13 05:09:00;;;;;;;;;24.75;19.75;;;;;15.11;82.02;99777.88;5053909;28;45500;-70
2022/10/13 05:11:27;;;;;;;;;20.75;18.75;;;;;15.12;82.18;99771.63;5055442;28;45518;-70
2022/10/13 05:13:54;;;;;;;;;17.75;17.25;;;;;15.10;82.20;99779.69;5055245;28;45403;-70
2022/10/13 05:16:21;;;;;;;;;18.50;17.50;;;;;15.08;82.35;99780.72;5055887;28;45429;-70
2022/10/13 05:18:48;;;;;;;;;19.00;16.50;;;;;15.07;82.35;99781.66;5049267;28;45455;-70
2022/10/13 05:21:16;;;;;;;;;19.00;16.25;;;;;15.07;82.22;99793.13;5087613;27;46258;-70
2022/10/13 05:23:42;;;;;;;;;16.00;16.00;;;;;15.05;81.99;99789.69;5049458;28;45535;-71
2022/10/13 05:26:11;;;;;;;;;18.75;18.75;;;;;15.06;81.80;99787.88;5053951;28;45522;-71
2022/10/13 05:28:37;;;;;;;;;22.75;18.50;;;;;15.05;82.03;99787.03;5051586;27;45205;-70
2022/10/13 05:31:17;;;;;;;;;20.75;20.50;;;;;15.05;81.91;99779.06;5049119;28;46462;-70
2022/10/13 05:33:44;;;;;;;;;24.00;21.00;;;;;15.04;81.44;99782.66;5051755;28;45491;-71
2022/10/13 05:36:33;;;;;;;;;21.50;21.25;;;;;15.02;81.39;99788.03;5051865;28;45496;-70
2022/10/13 05:39:02;;;;;;;;;24.00;20.00;;;;;15.02;81.49;99787.16;5048292;28;45509;-70
2022/10/13 05:41:28;;;;;;;;;20.00;19.25;;;;;15.00;81.22;99789.91;5047062;28;45477;-70
2022/10/13 05:43:58;;;;;;;;;19.50;18.25;;;;;15.01;81.33;99794.28;5051072;28;45434;-71
2022/10/13 05:46:24;;;;;;;;;17.50;16.50;;;;;15.02;81.65;99790.69;5069973;28;45432;-70
2022/10/13 05:48:49;;;;;;;;;25.00;23.25;;;;;15.02;81.40;99793.34;5052815;28;45345;-70
2022/10/13 05:51:29;;;;;;;;;22.75;20.75;;;;;15.05;81.42;99794.13;5052915;28;45903;-70
2022/10/13 05:54:02;;;;;;;;;22.25;20.00;;;;;15.05;81.81;99791.47;5050244;28;45462;-70
2022/10/13 05:56:34;;;;;;;;;26.00;25.25;;;;;15.07;81.60;99795.78;5067700;27;45474;-70
2022/10/13 05:59:03;;;;;;;;;21.00;18.25;;;;;15.08;81.87;99801.97;5051964;28;45552;-70
2022/10/13 06:01:32;;;;;;;;;24.75;21.00;;;;;15.08;82.09;99801.97;5046419;28;46130;-70
2022/10/13 06:04:03;;;;;;;;;18.25;16.75;;;;;15.09;81.56;99801.84;5052108;28;45386;-70
2022/10/13 06:06:29;;;;;;;;;19.50;19.50;;;;;15.11;81.90;99809.75;5053582;28;45414;-70
2022/10/13 06:08:54;;;;;;;;;20.75;18.50;;;;;15.13;81.52;99810.53;5051930;28;45285;-70
2022/10/13 06:11:20;;;;;;;;;15.00;12.75;;;;;15.15;81.41;99809.53;5054284;28;46542;-70
2022/10/13 06:13:45;;;;;;;;;18.50;15.75;;;;;15.17;80.99;99802.38;5051881;28;45614;-70
2022/10/13 06:16:10;;;;;;;;;21.50;20.25;;;;;15.19;80.85;99789.88;5047506;28;45362;-71
2022/10/13 06:18:36;;;;;;;;;19.50;16.00;;;;;15.22;80.84;99800.38;5062460;28;45525;-62
2022/10/13 06:21:01;;;;;;;;;17.25;16.25;;;;;15.31;80.87;99789.28;5052996;28;46275;-61
2022/10/13 06:23:27;;;;;;;;;24.25;21.25;;;;;15.39;80.60;99788.06;5051270;28;45424;-61
2022/10/13 06:25:53;;;;;;;;;19.25;18.50;;;;;15.39;80.66;99788.91;5049073;28;45380;-62
2022/10/13 06:28:19;;;;;;;;;18.75;18.25;;;;;15.41;80.99;99783.53;5050717;28;45456;-60
2022/10/13 06:30:48;;;;;;;;;25.00;21.50;;;;;15.42;81.19;99786.09;5051429;28;45420;-60
2022/10/13 06:33:14;;;;;;;;;20.50;19.25;;;;;15.46;80.77;99789.47;5052193;28;45670;-60
2022/10/13 06:35:39;;;;;;;;;22.25;19.75;;;;;15.49;81.34;99782.19;5079777;27;45488;-60
2022/10/13 06:38:05;;;;;;;;;22.00;21.00;;;;;15.52;81.39;99774.06;5052369;28;45443;-60
2022/10/13 06:40:30;;;;;;;;;18.25;16.75;;;;;15.54;81.90;99784.63;5048673;28;48087;-60
2022/10/13 06:42:56;;;;;;;;;25.25;21.25;;;;;15.55;81.98;99787.25;5053931;28;45435;-61
2022/10/13 06:45:21;;;;;;;;;24.75;24.75;;;;;15.59;82.30;99779.97;5051486;28;45996;-60
2022/10/13 06:47:46;;;;;;;;;21.75;20.75;;;;;15.62;82.48;99785.13;5053471;28;45402;-60
2022/10/13 06:50:12;;;;;;;;;24.25;22.25;;;;;15.64;82.35;99773.50;5050970;28;46542;-60
2022/10/13 06:52:38;;;;;;;;;21.00;21.00;;;;;15.66;82.49;99774.28;5053661;28;45373;-61
2022/10/13 06:55:04;;;;;;;;;21.50;19.50;;;;;15.70;82.35;99775.84;5052913;28;45470;-60
2022/10/13 06:57:30;;;;;;;;;22.75;21.50;;;;;15.74;82.35;99784.53;5053540;28;45302;-59
2022/10/13 06:59:55;;;;;;;;;28.50;23.75;;;;;15.78;82.09;99779.91;5047751;28;46684;-61
2022/10/13 07:02:21;;;;;;;;;24.00;24.00;;;;;15.82;81.79;99786.78;5053821;28;45326;-59
2022/10/13 07:04:46;;;;;;;;;27.00;24.33;;;;;15.84;81.63;99783.13;5061442;27;45488;-60
2022/10/13 07:07:12;;;;;;;;;24.25;22.25;;;;;15.89;81.56;99782.91;5053000;28;45443;-60
2022/10/13 07:09:38;;;;;;;;;23.50;21.75;;;;;15.97;81.28;99772.69;5050485;28;46273;-60
2022/10/13 07:12:03;;;;;;;;;20.75;20.25;;;;;16.01;81.07;99772.47;5053222;28;45441;-59
2022/10/13 07:14:28;;;;;;;;;16.25;16.00;;;;;16.07;80.93;99767.78;5049958;28;45507;-60
2022/10/13 07:16:54;;;;;;;;;21.50;20.25;;;;;16.11;81.21;99774.66;5051942;28;45410;-60
2022/10/13 07:19:19;;;;;;;;;30.25;27.25;;;;;16.15;80.86;99773.56;5049094;28;45457;-60
2022/10/13 07:21:45;;;;;;;;;24.75;22.00;;;;;16.20;80.93;99779.50;5052900;28;45508;-61
2022/10/13 07:24:11;;;;;;;;;31.00;26.50;;;;;16.24;81.24;99789.03;5048259;28;45487;-60
2022/10/13 07:26:36;;;;;;;;;20.25;20.00;;;;;16.30;80.83;99788.72;5047690;28;45699;-60
2022/10/13 07:29:02;;;;;;;;;23.75;20.75;;;;;16.31;80.85;99788.63;5050330;28;46513;-60
2022/10/13 07:31:28;;;;;;;;;24.00;22.25;;;;;16.35;80.52;99787.53;5047788;28;45384;-60
2022/10/13 07:33:53;;;;;;;;;29.50;25.50;;;;;16.38;80.33;99790.03;5050607;28;45401;-59
2022/10/13 07:36:19;;;;;;;;;22.50;19.50;;;;;16.42;80.48;99786.25;5052868;28;45657;-60
2022/10/13 07:38:45;;;;;;;;;25.50;21.75;;;;;16.46;80.11;99784.28;5049933;28;46187;-59
2022/10/13 07:41:12;;;;;;;;;22.50;22.50;;;;;16.48;80.31;99779.75;5052767;28;45444;-60
2022/10/13 07:43:38;;;;;;;;;22.00;20.50;;;;;16.51;79.93;99782.25;5051361;28;45629;-59
2022/10/13 07:46:04;;;;;;;;;22.25;19.00;;;;;16.57;80.21;99781.94;5062052;27;45540;-59
2022/10/13 07:48:30;;;;;;;;;23.50;23.50;;;;;16.62;79.92;99777.19;5051455;28;45397;-59
2022/10/13 07:50:56;;;;;;;;;25.50;19.50;;;;;16.66;79.45;99778.78;5052746;28;45501;-62
2022/10/13 07:53:22;;;;;;;;;23.00;18.00;;;;;16.71;79.55;99782.06;5051351;28;45364;-61
2022/10/13 07:55:47;;;;;;;;;23.00;23.00;;;;;16.76;79.21;99781.78;5044093;28;45618;-59
2022/10/13 07:58:13;;;;;;;;;19.75;18.75;;;;;16.79;78.97;99775.44;5051811;28;46079;-59
2022/10/13 08:00:38;;;;;;;;;22.00;21.00;;;;;16.84;78.88;99776.91;5049514;28;45456;-59
2022/10/13 08:03:04;;;;;;;;;17.25;16.25;;;;;16.87;78.78;99774.09;5056154;28;45389;-59
2022/10/13 08:05:29;;;;;;;;;17.50;16.50;;;;;16.91;78.39;99775.66;5054918;28;45534;-59
2022/10/13 08:07:55;;;;;;;;;18.25;17.50;;;;;16.96;78.50;99770.91;5056339;28;45567;-59
2022/10/13 08:10:20;;;;;;;;;25.75;22.00;;;;;17.04;78.64;99770.50;5049046;28;45382;-59
2022/10/13 08:12:46;;;;;;;;;21.00;16.75;;;;;17.09;78.09;99774.59;5057416;28;45202;-59
2022/10/13 08:15:12;;;;;;;;;47.67;39.33;;;;;17.14;77.81;99771.69;5049691;28;45442;-59
2022/10/13 08:17:37;;;;;;;;;22.00;19.00;;;;;17.21;77.71;99762.41;5047896;28;46276;-59
2022/10/13 08:20:05;;;;;;;;;17.00;17.00;;;;;17.31;77.56;99766.25;5049965;28;45471;-59
2022/10/13 08:22:33;;;;;;;;;23.50;17.75;;;;;17.39;76.70;99765.81;5056639;28;45448;-59
2022/10/13 08:25:00;;;;;;;;;21.50;19.00;;;;;17.44;76.09;99758.38;5048056;28;45323;-59
2022/10/13 08:27:26;;;;;;;;;17.25;16.25;;;;;17.50;75.50;99758.03;5056680;28;46277;-59
2022/10/13 08:29:53;;;;;;;;;15.50;15.25;;;;;17.59;74.99;99757.53;5054682;28;45539;-59
2022/10/13 08:32:19;;;;;;;;;14.50;13.25;;;;;17.63;74.58;99755.50;5056548;28;45482;-59
2022/10/13 08:34:45;;;;;;;;;17.00;16.00;;;;;17.70;74.36;99751.59;5054159;28;45495;-59
2022/10/13 08:37:16;;;;;;;;;15.00;14.75;;;;;17.76;74.65;99753.91;5055745;28;45362;-59
2022/10/13 08:39:42;;;;;;;;;18.25;16.75;;;;;17.82;74.11;99747.31;5053907;28;45548;-60
2022/10/13 08:42:16;;;;;;;;;14.75;14.00;;;;;17.85;73.46;99749.81;5055183;28;45474;-61
2022/10/13 08:44:45;;;;;;;;;16.00;15.75;;;;;17.90;72.93;99751.25;5065227;28;45571;-59
2022/10/13 08:47:11;;;;;;;;;18.25;16.50;;;;;17.95;72.53;99749.16;5051632;28;45562;-59
2022/10/13 08:49:36;;;;;;;;;15.50;14.75;;;;;17.99;72.41;99750.69;5066018;28;45502;-60
2022/10/13 08:52:04;;;;;;;;;25.25;21.50;;;;;18.05;72.87;99746.81;5051216;28;45313;-60
2022/10/13 08:54:30;;;;;;;;;14.25;14.25;;;;;18.10;72.04;99748.22;5052589;28;45356;-60
2022/10/13 08:56:55;;;;;;;;;18.25;17.50;;;;;18.14;72.99;99751.56;5055944;28;45421;-60
2022/10/13 08:59:21;;;;;;;;;20.25;17.50;;;;;18.17;72.89;99745.19;5049638;28;45343;-60
2022/10/13 09:01:47;;;;;;;;;16.75;16.00;;;;;18.25;72.50;99750.94;5056373;28;45558;-59
2022/10/13 09:04:36;;;;;;;;;16.75;16.25;;;;;18.35;72.97;99747.59;5050610;28;45491;-60
2022/10/13 09:07:08;;;;;;;;;20.25;18.00;;;;;18.43;72.48;99734.59;5054929;28;47144;-60
2022/10/13 09:09:35;;;;;;;;;16.75;16.75;;;;;18.52;72.55;99732.31;5049680;28;45522;-60
2022/10/13 09:12:01;;;;;;;;;17.25;16.50;;;;;18.59;72.67;99736.38;5056009;28;45508;-60
2022/10/13 09:14:32;;;;;;;;;20.25;17.50;;;;;18.68;71.86;99733.97;5049072;28;45592;-60
2022/10/13 09:17:21;;;;;;;;;15.50;15.50;;;;;18.70;71.21;99742.75;5056124;28;45638;-60
2022/10/13 09:20:13;;;;;;;;;18.25;18.25;;;;;18.73;71.02;99739.03;5048988;28;45448;-60
2022/10/13 09:22:39;;;;;;;;;23.50;18.00;;;;;18.77;71.38;99737.84;5049294;28;45467;-60
2022/10/13 09:25:09;;;;;;;;;20.75;17.75;;;;;18.79;70.75;99746.63;5048680;28;45454;-60
2022/10/13 09:27:43;;;;;;;;;26.25;21.75;;;;;18.86;71.21;99739.94;5054723;28;45520;-59
2022/10/13 09:30:33;;;;;;;;;21.75;21.00;;;;;18.92;70.12;99736.88;5065042;28;45466;-59
2022/10/13 09:33:11;;;;;;;;;29.25;28.25;;;;;18.96;70.17;99734.84;5062229;28;45516;-59
2022/10/13 09:35:42;;;;;;;;;23.75;21.00;;;;;19.01;70.02;99732.75;5051789;28;45497;-59
2022/10/13 09:38:19;;;;;;;;;20.00;19.25;;;;;19.04;69.72;99730.75;5052403;28;46173;-61
2022/10/13 09:40:56;;;;;;;;;19.75;17.25;;;;;19.11;69.71;99721.34;5055354;28;45595;-61
2022/10/13 09:43:24;;;;;;;;;15.00;14.75;;;;;19.17;69.35;99722.78;5071796;28;45393;-59
2022/10/13 09:45:50;;;;;;;;;17.25;15.50;;;;;19.22;69.07;99722.47;5070515;27;45589;-59
2022/10/13 09:48:21;;;;;;;;;15.50;15.25;;;;;19.27;69.21;99720.38;5055471;28;46363;-59
2022/10/13 09:50:53;;;;;;;;;19.40;16.20;;;;;19.32;68.98;99710.19;5055007;28;45380;-61
2022/10/13 09:53:28;;;;;;;;;19.00;17.50;;;;;19.37;68.30;99706.28;5071669;28;45423;-61
2022/10/13 09:56:09;;;;;;;;;18.00;17.00;;;;;19.47;68.16;99718.06;5055986;28;45353;-61
2022/10/13 09:58:43;;;;;;;;;21.50;18.00;;;;;19.59;67.70;99716.44;5055296;28;46487;-61
2022/10/13 10:01:19;;;;;;;;;16.25;15.75;;;;;19.70;68.17;99713.88;5070621;28;45952;-61
2022/10/13 10:03:48;;;;;;;;;18.25;16.75;;;;;19.78;67.49;99705.31;5055435;28;45449;-61
2022/10/13 10:06:15;;;;;;;;;14.50;13.50;;;;;19.83;66.49;99703.19;5069809;28;46312;-61
2022/10/13 10:08:58;;;;;;;;;19.00;17.75;;;;;19.91;66.76;99690.13;5054369;28;45608;-61
2022/10/13 10:11:31;;;;;;;;;9.25;9.25;;;;;19.97;65.69;99688.84;5055335;28;45511;-61
2022/10/13 10:13:59;;;;;;;;;15.00;10.25;;;;;19.98;64.60;99685.19;5055089;28;45318;-61
2022/10/13 10:16:41;;;;;;;;;17.00;16.25;;;;;20.00;64.78;99686.81;5053505;28;45440;-61
2022/10/13 10:19:31;;;;;;;;;19.75;17.75;;;;;20.04;65.21;99691.00;5054889;28;46518;-62
2022/10/13 10:22:39;;;;;;;;;17.40;16.40;;;;;20.11;64.63;99686.91;5054037;28;45295;-61
2022/10/13 10:25:40;;;;;;;;;13.00;12.50;;;;;20.18;64.33;99682.00;5039282;28;45474;-60
2022/10/13 10:28:28;;;;;;;;;19.25;18.50;;;;;20.21;64.15;99677.28;5062055;28;45599;-61
2022/10/13 10:31:12;;;;;;;;;17.50;16.75;;;;;20.25;63.79;99677.94;5054576;28;45482;-60
2022/10/13 10:33:43;;;;;;;;;17.20;14.00;;;;;20.27;63.90;99673.31;5055513;28;45197;-60
2022/10/13 10:36:19;;;;;;;;;21.50;15.25;;;;;20.30;64.67;99672.22;5054677;28;45478;-60
2022/10/13 10:39:20;;;;;;;;;18.50;16.25;;;;;20.30;64.06;99662.38;5054867;28;45409;-60
2022/10/13 10:42:11;;;;;;;;;15.00;13.25;;;;;20.36;63.56;99670.00;5054973;28;45393;-60
2022/10/13 10:44:41;;;;;;;;;12.80;12.40;;;;;20.40;63.45;99665.28;5054499;28;45366;-60
2022/10/13 10:47:19;;;;;;;;;21.00;18.00;;;;;20.41;63.39;99654.47;5054830;28;45436;-60
2022/10/13 10:49:45;;;;;;;;;14.50;13.50;;;;;20.45;62.77;99647.91;5054840;28;45429;-60
2022/10/13 10:52:23;;;;;;;;;14.50;14.50;;;;;20.48;62.67;99644.16;5054357;28;46345;-60
2022/10/13 10:55:16;;;;;;;;;12.20;11.80;;;;;20.42;62.42;99640.13;5055137;28;45392;-60
2022/10/13 10:57:53;;;;;;;;;18.00;17.00;;;;;20.35;62.33;99645.97;5055058;28;45467;-60
2022/10/13 11:00:21;;;;;;;;;18.00;16.25;;;;;20.27;62.33;99648.38;5054636;28;45440;-61
2022/10/13 11:03:01;;;;;;;;;14.00;14.00;;;;;20.22;62.46;99646.00;5054894;28;45591;-60
2022/10/13 11:06:00;;;;;;;;;16.60;13.80;;;;;20.20;62.10;99639.91;5054660;28;45396;-60
2022/10/13 11:08:39;;;;;;;;;13.75;12.50;;;;;20.15;61.90;99637.53;5054591;28;45439;-60
2022/10/13 11:11:24;;;;;;;;;16.50;15.75;;;;;20.06;62.14;99648.91;5054596;28;45407;-60
2022/10/13 11:13:56;;;;;;;;;14.50;11.50;;;;;19.99;62.24;99655.66;5054041;28;45399;-61
2022/10/13 11:17:13;;;;;;;;;17.00;14.60;;;;;19.97;62.05;99638.84;5069740;28;45483;-60
2022/10/13 11:19:39;;;;;;;;;17.00;14.50;;;;;20.02;61.64;99623.31;5035942;28;45508;-60
2022/10/13 11:22:05;;;;;;;;;12.00;12.00;;;;;20.11;61.63;99613.78;5053475;28;45540;-60
2022/10/13 11:24:37;;;;;;;;;16.50;14.00;;;;;20.19;61.51;99606.91;5054028;28;45849;-60
2022/10/13 11:27:24;;;;;;;;;15.20;15.20;;;;;20.31;61.08;99607.84;5053956;28;45516;-60
2022/10/13 11:29:53;;;;;;;;;19.50;16.75;;;;;20.38;61.12;99601.13;5053757;28;45373;-61